Date,TemperatureHighF,TemperatureAvgF,TemperatureLowF,DewpointHighF,DewpointAvgF,DewpointLowF,HumidityHigh,HumidityAvg,HumidityLow,PressureMaxIn,PressureMinIn,WindSpeedMaxMPH,WindSpeedAvgMPH,GustSpeedMaxMPH,PrecipitationSumIn
2014-1-1,42.9,30.5,19.0,0.0,0.0,0.0,0,0,100,0.00,0.00,10,2,10,0.00
2014-1-2,28.7,22.0,9.8,0.0,0.0,0.0,0,0,100,0.00,0.00,27,8,27,0.00
2014-1-3,17.5,7.9,-1.5,0.0,0.0,0.0,0,0,100,0.00,0.00,21,2,21,0.00
2014-1-4,36.0,22.8,8.4,0.0,0.0,0.0,0,0,100,0.00,0.00,24,5,24,0.00
2014-1-5,45.6,36.9,25.8,0.0,0.0,0.0,0,0,100,0.00,0.00,31,4,34,0.26
2014-1-6,32.5,3.4,-9.2,0.0,0.0,0.0,0,0,100,0.00,0.00,26,9,28,0.00
2014-1-7,10.0,0.8,-8.7,0.0,0.0,0.0,0,0,100,0.00,0.00,25,7,25,0.00
2014-1-8,26.1,17.2,6.9,0.0,0.0,0.0,0,0,100,0.00,0.00,13,2,14,0.00
2014-1-9,35.9,26.6,17.6,0.0,0.0,0.0,0,0,100,0.00,0.00,11,2,11,0.00
2014-1-10,47.5,38.6,31.0,0.0,0.0,0.0,0,0,100,0.00,0.00,14,4,14,0.00
2014-1-11,52.0,45.1,34.7,0.0,0.0,0.0,0,0,100,0.00,0.00,31,8,32,0.20
2014-1-12,39.1,35.1,31.5,0.0,0.0,0.0,0,0,100,0.00,0.00,16,6,18,0.00
2014-1-13,48.2,44.2,37.8,0.0,0.0,0.0,0,0,100,0.00,0.00,18,7,20,0.24
2014-1-14,45.0,39.7,33.2,0.0,0.0,0.0,0,0,100,0.00,0.00,19,5,21,0.00
2014-1-15,33.6,26.7,19.5,0.0,0.0,0.0,0,0,100,0.00,0.00,17,4,18,0.00
2014-1-16,31.0,24.6,16.2,0.0,0.0,0.0,0,0,100,0.00,0.00,19,6,19,0.00
2014-1-17,37.1,26.4,11.6,0.0,0.0,0.0,0,0,100,0.00,0.00,19,5,24,0.02
2014-1-18,24.1,16.7,6.7,0.0,0.0,0.0,0,0,100,0.00,0.00,12,3,13,0.00
2014-1-19,31.1,26.3,20.1,0.0,0.0,0.0,0,0,100,0.00,0.00,26,6,27,0.02
2014-1-20,38.1,31.6,24.2,0.0,0.0,0.0,0,0,100,0.00,0.00,19,5,19,0.00
2014-1-21,27.0,15.6,-0.8,0.0,0.0,0.0,0,0,100,0.00,0.00,23,6,23,0.00
2014-1-22,15.8,5.9,-4.1,0.0,0.0,0.0,0,0,100,0.00,0.00,13,2,14,0.00
2014-1-23,13.1,7.4,0.7,0.0,0.0,0.0,0,0,100,0.00,0.00,18,4,19,0.00
2014-1-24,20.1,7.8,-3.1,0.0,0.0,0.0,0,0,100,0.00,0.00,24,6,25,0.00
2014-1-25,29.4,20.1,9.5,0.0,0.0,0.0,0,0,100,0.00,0.00,27,9,31,0.08
2014-1-26,36.6,19.4,3.1,0.0,0.0,0.0,0,0,100,0.00,0.00,17,4,19,0.00
2014-1-27,38.5,11.8,-5.2,0.0,0.0,0.0,0,0,100,0.00,0.00,34,6,34,3.42
2014-1-28,11.4,-2.4,-13.8,0.0,0.0,0.0,0,0,100,0.00,0.00,8,0,8,0.00
2014-1-29,19.6,6.0,-7.1,0.0,0.0,0.0,0,0,100,0.00,0.00,20,3,20,0.02
2014-1-30,32.6,20.2,7.1,0.0,0.0,0.0,0,0,100,0.00,0.00,19,5,19,0.00
2014-1-31,37.2,32.6,30.0,0.0,0.0,0.0,0,0,100,0.00,0.00,19,4,21,0.00
2014-2-1,51.9,41.1,31.9,0.0,0.0,0.0,0,0,100,0.00,0.00,16,4,16,0.00
2014-2-2,43.6,31.5,24.7,0.0,0.0,0.0,0,0,100,0.00,0.00,17,5,17,0.14
2014-2-3,31.8,24.4,14.4,0.0,0.0,0.0,0,0,100,0.00,0.00,14,4,15,0.02
2014-2-4,31.8,24.0,14.6,0.0,0.0,0.0,0,0,100,0.00,0.00,16,4,17,0.00
2014-2-5,29.2,25.5,20.3,0.0,0.0,0.0,0,0,100,0.00,0.00,23,6,25,0.00
2014-2-6,29.0,18.3,7.5,0.0,0.0,0.0,0,0,100,0.00,0.00,12,2,14,0.00
2014-2-7,18.4,6.7,-2.3,0.0,0.0,0.0,0,0,100,0.00,0.00,11,1,12,0.00
2014-2-8,27.0,15.7,3.0,0.0,0.0,0.0,0,0,100,0.00,0.00,7,1,7,0.00
2014-2-9,30.5,23.0,15.4,0.0,0.0,0.0,0,0,100,0.00,0.00,19,3,19,0.00
2014-2-10,28.6,13.7,4.0,0.0,0.0,0.0,0,0,100,0.00,0.00,8,1,9,0.00
2014-2-11,19.9,6.9,-2.3,0.0,0.0,0.0,0,0,100,0.00,0.00,8,1,8,0.00
2014-2-12,33.0,15.9,-1.4,0.0,0.0,0.0,0,0,100,0.00,0.00,9,2,10,0.00
2014-2-13,38.3,26.3,15.1,0.0,0.0,0.0,0,0,100,0.00,0.00,11,2,11,0.00
2014-2-14,32.3,27.5,20.9,0.0,0.0,0.0,0,0,100,0.00,0.00,26,6,29,0.50
2014-2-15,26.1,19.8,11.9,0.0,0.0,0.0,0,0,100,0.00,0.00,18,5,19,0.00
2014-2-16,30.1,20.7,10.2,0.0,0.0,0.0,0,0,100,0.00,0.00,16,3,20,0.00
2014-2-17,35.4,22.3,5.9,0.0,0.0,0.0,0,0,100,0.00,0.00,25,6,27,0.14
2014-2-18,47.0,38.6,33.6,0.0,0.0,0.0,0,0,100,0.00,0.00,28,8,32,0.12
2014-2-19,45.8,39.9,28.0,0.0,0.0,0.0,0,0,100,0.00,0.00,28,5,28,0.02
2014-2-20,60.0,44.6,27.7,0.0,0.0,0.0,0,0,100,0.00,0.00,28,7,28,0.26
2014-2-21,57.6,41.2,31.2,0.0,0.0,0.0,0,0,100,0.00,0.00,35,9,35,0.44
2014-2-22,55.1,41.0,31.2,0.0,0.0,0.0,0,0,100,0.00,0.00,19,7,22,0.00
2014-2-23,41.8,33.7,23.6,0.0,0.0,0.0,0,0,100,0.00,0.00,14,3,15,0.00
2014-2-24,32.5,25.2,19.1,0.0,0.0,0.0,0,0,100,0.00,0.00,19,5,21,0.00
2014-2-25,28.6,24.2,19.9,0.0,0.0,0.0,0,0,100,0.00,0.00,16,4,18,0.00
2014-2-26,23.3,18.0,12.3,0.0,0.0,0.0,0,0,100,0.00,0.00,21,6,21,0.00
2014-2-27,21.4,15.4,3.8,0.0,0.0,0.0,0,0,100,0.00,0.00,25,7,28,0.86
2014-2-28,33.8,16.8,0.7,0.0,0.0,0.0,0,0,100,0.00,0.00,12,3,13,0.00
2014-3-1,50.0,36.5,22.5,0.0,0.0,0.0,0,0,100,0.00,0.00,18,4,18,0.00
2014-3-2,33.9,24.4,14.3,0.0,0.0,0.0,0,0,100,0.00,0.00,17,5,19,0.00
2014-3-3,20.4,13.3,3.5,0.0,0.0,0.0,0,0,100,0.00,0.00,14,3,15,0.00
2014-3-4,38.3,19.6,3.4,0.0,0.0,0.0,0,0,100,0.00,0.00,8,1,8,0.00
2014-3-5,37.7,24.0,16.1,0.0,0.0,0.0,0,0,100,0.00,0.00,14,3,14,0.00
2014-3-6,45.7,29.8,17.5,0.0,0.0,0.0,0,0,100,0.00,40.00,15,5,15,0.00
2014-3-7,58.1,40.4,27.3,0.0,0.0,0.0,0,0,100,0.00,0.00,10,3,10,0.00
2014-3-8,56.3,39.9,30.1,0.0,0.0,0.0,0,0,100,0.00,0.00,14,4,15,0.00
2014-3-9,45.7,35.0,22.8,0.0,0.0,0.0,0,0,100,0.00,0.00,14,4,15,0.00
2014-3-10,60.6,44.9,33.1,0.0,0.0,0.0,0,0,100,0.00,0.00,25,7,25,0.00
2014-3-11,68.9,53.9,43.6,0.0,0.0,0.0,0,0,100,0.00,0.00,14,4,15,0.00
2014-3-12,51.7,34.7,17.3,0.0,0.0,0.0,0,0,100,0.00,40.00,27,11,29,0.54
2014-3-13,32.3,21.9,8.7,0.0,0.0,0.0,0,0,100,0.00,0.00,19,5,20,0.00
2014-3-14,61.4,45.2,29.6,0.0,0.0,0.0,0,0,100,0.00,0.00,41,10,45,0.42
2014-3-15,51.8,43.3,33.3,0.0,0.0,0.0,0,0,100,0.00,0.00,22,6,23,0.00
2014-3-16,33.3,28.3,23.9,0.0,0.0,0.0,0,0,100,0.00,0.00,16,6,17,0.00
2014-3-17,42.8,30.8,19.9,0.0,0.0,0.0,0,0,100,0.00,0.00,11,4,12,0.00
2014-3-18,60.3,42.5,26.3,0.0,0.0,0.0,0,0,100,0.00,0.00,15,5,16,0.00
2014-3-19,51.5,45.8,40.2,0.0,0.0,0.0,0,0,100,0.00,0.00,28,8,28,0.64
2014-3-20,45.6,38.4,33.6,0.0,0.0,0.0,0,0,100,0.00,0.00,20,6,20,0.00
2014-3-21,65.6,46.8,31.3,0.0,0.0,0.0,0,0,100,0.00,0.00,19,4,22,0.00
2014-3-22,56.5,45.0,35.3,0.0,0.0,0.0,0,0,100,0.00,0.00,22,7,25,0.00
2014-3-23,35.3,30.1,21.5,0.0,0.0,0.0,0,0,100,0.00,0.00,21,8,23,0.00
2014-3-24,38.4,25.5,13.1,0.0,0.0,0.0,0,0,100,0.00,0.00,17,2,17,0.00
2014-3-25,39.7,28.1,21.0,0.0,0.0,0.0,0,0,100,0.00,0.00,28,4,29,0.00
2014-3-26,37.2,24.4,12.7,0.0,0.0,0.0,0,0,100,0.00,0.00,18,4,19,0.00
2014-3-27,56.6,39.9,23.8,0.0,0.0,0.0,0,0,100,0.00,0.00,22,7,23,0.00
2014-3-28,59.0,51.1,37.5,0.0,0.0,0.0,0,0,100,0.00,0.00,30,9,30,0.54
2014-3-29,39.3,34.9,31.3,0.0,0.0,0.0,0,0,100,0.00,0.00,26,10,27,0.84
2014-3-30,46.4,35.7,27.8,0.0,0.0,0.0,0,0,100,0.00,0.00,24,8,24,0.02
2014-3-31,66.0,46.4,27.7,0.0,0.0,0.0,0,0,100,0.00,0.00,11,2,11,0.00
2014-4-1,73.7,59.3,47.2,0.0,0.0,0.0,0,0,100,0.00,0.00,34,8,37,2.88
2014-4-2,58.8,49.6,41.8,0.0,0.0,0.0,0,0,100,0.00,0.00,14,3,15,0.20
2014-4-3,52.8,47.1,42.2,0.0,0.0,0.0,0,0,100,0.00,0.00,42,7,59,0.52
2014-4-4,68.1,54.0,39.5,0.0,0.0,0.0,0,0,100,0.00,0.00,33,9,35,7.82
2014-4-5,48.2,39.6,32.2,0.0,0.0,0.0,0,0,100,0.00,0.00,24,6,26,1.24
2014-4-6,61.6,44.1,26.3,0.0,0.0,0.0,0,0,100,0.00,0.00,14,4,14,0.00
2014-4-7,54.6,50.3,47.8,0.0,0.0,0.0,0,0,100,0.00,0.00,23,6,23,0.40
2014-4-8,60.8,50.6,41.2,0.0,0.0,0.0,0,0,100,0.00,0.00,35,7,38,0.06
2014-4-9,58.7,48.9,40.8,0.0,0.0,0.0,0,0,100,0.00,0.00,17,5,18,0.00
2014-4-10,72.4,57.4,40.4,0.0,0.0,0.0,0,0,100,0.00,0.00,34,9,34,0.02
2014-4-11,66.7,57.7,45.2,0.0,0.0,0.0,0,0,100,0.00,0.00,18,4,18,0.12
2014-4-12,78.7,59.7,38.4,0.0,0.0,0.0,0,0,100,0.00,0.00,20,5,21,0.00
2014-4-13,79.5,70.2,60.5,0.0,0.0,0.0,0,0,100,0.00,0.00,30,8,35,0.00
2014-4-14,69.8,63.0,44.8,0.0,0.0,0.0,0,0,100,0.00,0.00,30,9,33,0.34
2014-4-15,44.7,32.8,26.5,0.0,0.0,0.0,0,0,100,0.00,0.00,25,8,25,0.14
2014-4-16,48.8,35.7,19.5,0.0,0.0,0.0,0,0,100,0.00,0.00,14,4,14,0.00
2014-4-17,69.0,51.3,33.9,0.0,0.0,0.0,0,0,100,0.00,0.00,19,6,21,0.00
2014-4-18,71.7,55.9,42.0,0.0,0.0,0.0,0,0,100,0.00,0.00,12,3,12,0.00
2014-4-19,65.3,54.2,43.6,0.0,0.0,0.0,0,0,100,0.00,0.00,16,5,16,0.00
2014-4-20,80.3,59.4,40.2,0.0,0.0,0.0,0,0,100,0.00,0.00,13,4,14,0.00
2014-4-21,80.8,65.3,45.3,0.0,0.0,0.0,0,0,100,0.00,0.00,17,4,19,0.00
2014-4-22,69.9,60.1,46.5,0.0,0.0,0.0,0,0,100,0.00,0.00,26,7,27,0.10
2014-4-23,55.3,45.7,36.4,0.0,0.0,0.0,0,0,100,0.00,0.00,18,7,19,0.00
2014-4-24,63.0,50.5,38.8,0.0,0.0,0.0,0,0,100,0.00,0.00,15,6,15,0.00
2014-4-25,56.6,52.4,44.9,0.0,0.0,0.0,0,0,100,0.00,0.00,25,6,25,0.22
2014-4-26,71.9,56.0,43.4,0.0,0.0,0.0,0,0,100,0.00,0.00,25,6,25,0.12
2014-4-27,67.5,52.5,37.0,0.0,0.0,0.0,0,0,100,0.00,0.00,16,6,17,0.00
2014-4-28,55.6,51.9,45.6,0.0,0.0,0.0,0,0,100,0.00,0.00,20,9,21,0.40
2014-4-29,78.0,64.6,53.5,0.0,0.0,0.0,0,0,100,0.00,0.00,26,8,27,1.66
2014-4-30,64.0,56.6,52.5,0.0,0.0,0.0,0,0,100,0.00,0.00,15,4,18,0.38
2014-5-1,59.9,53.0,46.5,0.0,0.0,0.0,0,0,100,0.00,0.00,22,6,22,0.02
2014-5-2,58.2,51.3,45.0,0.0,0.0,0.0,0,0,100,0.00,0.00,16,5,17,0.00
2014-5-3,66.8,55.8,45.6,0.0,0.0,0.0,0,0,100,0.00,0.00,26,6,30,1.02
2014-5-4,66.9,57.9,47.6,0.0,0.0,0.0,0,0,100,0.00,0.00,26,7,29,0.44
2014-5-5,58.5,48.5,41.9,0.0,0.0,0.0,0,0,100,0.00,0.00,17,6,17,0.04
2014-5-6,73.4,57.6,41.9,0.0,0.0,0.0,0,0,100,0.00,0.00,16,5,16,0.00
2014-5-7,86.3,69.3,53.5,0.0,0.0,0.0,0,0,100,0.00,0.00,19,6,19,0.00
2014-5-8,86.8,75.9,62.6,0.0,0.0,0.0,0,0,100,0.00,0.00,22,7,25,0.00
2014-5-9,80.3,70.8,64.5,0.0,0.0,0.0,0,0,100,0.00,0.00,28,7,29,0.08
2014-5-10,66.0,61.6,55.2,0.0,0.0,0.0,0,0,100,0.00,0.00,15,3,18,0.86
2014-5-11,83.9,66.7,54.0,0.0,0.0,0.0,0,0,100,0.00,0.00,13,4,15,0.28
2014-5-12,86.4,74.2,62.4,0.0,0.0,0.0,0,0,100,0.00,0.00,20,5,22,0.56
2014-5-13,89.3,78.4,67.4,0.0,0.0,0.0,0,0,100,0.00,0.00,23,6,24,0.00
2014-5-14,83.2,69.6,60.2,0.0,0.0,0.0,0,0,100,0.00,0.00,16,3,16,0.52
2014-5-15,65.4,58.1,45.6,0.0,0.0,0.0,0,0,100,0.00,0.00,21,6,21,0.60
2014-5-16,61.6,49.5,34.1,0.0,0.0,0.0,0,0,100,0.00,0.00,12,3,13,0.10
2014-5-17,57.4,48.0,40.4,0.0,0.0,0.0,0,0,100,0.00,0.00,14,3,15,0.04
2014-5-18,69.8,53.1,34.8,0.0,0.0,0.0,0,0,100,0.00,0.00,11,2,11,0.00
2014-5-19,73.2,58.8,39.1,0.0,0.0,0.0,0,0,100,0.00,0.00,12,2,12,0.00
2014-5-20,79.0,65.9,55.4,0.0,0.0,0.0,0,0,100,0.00,0.00,17,4,17,0.00
2014-5-21,80.9,68.9,61.0,0.0,0.0,0.0,0,0,100,0.00,0.00,16,4,16,0.06
2014-5-22,75.4,67.0,59.2,0.0,0.0,0.0,0,0,100,0.00,0.00,18,6,20,0.32
2014-5-23,70.5,60.9,49.7,0.0,0.0,0.0,0,0,100,0.00,0.00,24,5,26,0.00
2014-5-24,80.4,65.0,45.7,0.0,0.0,0.0,0,0,100,0.00,0.00,9,2,9,0.00
2014-5-25,82.3,69.8,52.0,0.0,0.0,0.0,0,0,100,0.00,0.00,8,2,9,0.00
2014-5-26,89.8,74.4,52.6,0.0,0.0,0.0,0,0,100,0.00,0.00,15,3,16,0.00
2014-5-27,90.2,77.5,67.4,0.0,0.0,0.0,0,0,100,0.00,0.00,19,4,19,0.02
2014-5-28,89.0,72.8,63.6,0.0,0.0,0.0,0,0,100,0.00,0.00,19,3,21,0.00
2014-5-29,83.6,71.5,62.0,0.0,0.0,0.0,0,0,100,0.00,0.00,10,2,12,0.00
2014-5-30,82.7,69.4,54.6,0.0,0.0,0.0,0,0,100,0.00,0.00,12,3,12,0.00
2014-5-31,84.5,72.5,56.0,0.0,0.0,0.0,0,0,100,0.00,0.00,12,4,13,0.00
2014-6-1,90.5,76.1,58.3,0.0,0.0,0.0,0,0,100,0.00,0.00,15,4,17,0.00
2014-6-2,83.9,75.0,68.4,0.0,0.0,0.0,0,0,100,0.00,0.00,19,6,20,0.22
2014-6-3,87.3,76.2,66.5,0.0,0.0,0.0,0,0,100,0.00,0.00,17,5,19,0.18
2014-6-4,77.7,66.0,56.5,0.0,0.0,0.0,0,0,100,0.00,0.00,14,3,15,0.42
2014-6-5,74.4,64.7,53.4,0.0,0.0,0.0,0,0,100,0.00,0.00,18,5,19,0.02
2014-6-6,84.1,67.5,47.5,0.0,0.0,0.0,0,0,100,0.00,0.00,10,2,11,0.00
2014-6-7,85.1,71.5,52.8,0.0,0.0,0.0,0,0,100,0.00,0.00,10,3,10,0.00
2014-6-8,80.2,65.4,55.1,0.0,0.0,0.0,0,0,100,0.00,0.00,16,5,18,0.08
2014-6-9,78.7,66.5,53.6,0.0,0.0,0.0,0,0,100,0.00,0.00,12,2,13,0.00
2014-6-10,74.3,65.1,56.5,0.0,0.0,0.0,0,0,100,0.00,0.00,13,3,13,0.22
2014-6-11,83.1,71.6,62.1,0.0,0.0,0.0,0,0,100,0.00,0.00,19,6,20,0.02
2014-6-12,81.6,70.7,62.0,0.0,0.0,0.0,0,0,100,0.00,0.00,17,4,17,0.00
2014-6-13,74.4,67.7,59.7,0.0,0.0,0.0,0,0,100,0.00,0.00,17,5,18,0.00
2014-6-14,78.2,64.5,45.0,0.0,0.0,0.0,0,0,100,0.00,0.00,12,3,12,0.00
2014-6-15,88.1,72.0,50.3,0.0,0.0,0.0,0,0,100,0.00,0.00,12,4,14,0.00
2014-6-16,92.3,77.4,67.2,0.0,0.0,0.0,0,0,100,0.00,0.00,18,3,18,0.58
2014-6-17,93.3,81.2,66.4,0.0,0.0,0.0,0,0,100,0.00,0.00,26,6,26,0.02
2014-6-18,93.8,81.1,66.5,0.0,0.0,0.0,0,0,100,0.00,0.00,27,5,30,0.22
2014-6-19,85.0,74.0,64.8,0.0,0.0,0.0,0,0,100,0.00,0.00,16,3,19,0.66
2014-6-20,89.7,75.1,66.7,0.0,0.0,0.0,0,0,100,0.00,0.00,19,3,19,0.32
2014-6-21,77.0,70.6,62.5,0.0,0.0,0.0,0,0,100,0.00,0.00,13,4,14,0.00
2014-6-22,89.0,72.8,60.3,0.0,0.0,0.0,0,0,100,0.00,0.00,10,3,11,0.00
2014-6-23,93.5,79.8,65.3,0.0,0.0,0.0,0,0,100,0.00,0.00,17,4,21,0.18
2014-6-24,92.1,76.1,67.1,0.0,0.0,0.0,0,0,100,0.00,0.00,18,4,18,0.56
2014-6-25,84.9,73.8,67.4,0.0,0.0,0.0,0,0,100,0.00,0.00,19,4,19,0.16
2014-6-26,86.0,76.0,63.8,0.0,0.0,0.0,0,0,100,0.00,0.00,10,2,11,0.00
2014-6-27,92.6,77.9,64.3,0.0,0.0,0.0,0,0,100,0.00,0.00,9,3,9,0.00
2014-6-28,91.8,75.0,66.0,0.0,0.0,0.0,0,0,100,0.00,0.00,31,4,35,2.02
2014-6-29,90.6,79.2,67.7,0.0,0.0,0.0,0,0,100,0.00,0.00,17,4,18,0.02
2014-6-30,89.3,79.2,68.4,0.0,0.0,0.0,0,0,100,0.00,0.00,18,5,18,0.00
2014-7-1,93.5,81.4,67.5,0.0,0.0,0.0,0,0,100,0.00,0.00,22,6,22,0.90
2014-7-2,88.6,75.9,65.9,0.0,0.0,0.0,0,0,100,0.00,0.00,16,4,17,0.18
2014-7-3,76.2,67.9,56.2,0.0,0.0,0.0,0,0,100,0.00,0.00,18,4,20,0.08
2014-7-4,79.6,66.3,53.5,0.0,0.0,0.0,0,0,100,0.00,0.00,16,5,16,0.00
2014-7-5,88.0,69.6,50.9,0.0,0.0,0.0,0,0,100,0.00,0.00,11,2,12,0.00
2014-7-6,82.2,69.8,56.2,0.0,0.0,0.0,0,0,100,0.00,0.00,16,3,16,0.00
2014-7-7,86.3,73.7,65.6,0.0,0.0,0.0,0,0,100,0.00,0.00,27,6,29,0.62
2014-7-8,83.5,74.1,66.0,0.0,0.0,0.0,0,0,100,0.00,0.00,23,7,25,0.18
2014-7-9,86.1,75.0,60.7,0.0,0.0,0.0,0,0,100,0.00,0.00,16,3,17,0.00
2014-7-10,87.5,72.5,58.3,0.0,0.0,0.0,0,0,100,0.00,0.00,12,3,13,0.00
2014-7-11,88.2,74.2,57.2,0.0,0.0,0.0,0,0,100,0.00,0.00,11,2,12,0.00
2014-7-12,90.9,77.4,62.0,0.0,0.0,0.0,0,0,100,0.00,0.00,14,3,15,0.00
2014-7-13,88.8,77.9,69.6,0.0,0.0,0.0,0,0,100,0.00,0.00,24,5,156,0.18
2014-7-14,85.9,74.1,66.7,0.0,0.0,0.0,0,0,100,0.00,0.00,23,4,25,0.00
2014-7-15,79.1,69.1,58.1,0.0,0.0,0.0,0,0,100,0.00,0.00,18,4,21,0.00
2014-7-16,75.5,63.7,50.2,0.0,0.0,0.0,0,0,100,0.00,0.00,13,3,13,0.00
2014-7-17,82.2,65.8,49.0,0.0,0.0,0.0,0,0,100,0.00,0.00,10,1,10,0.00
2014-7-18,79.4,66.9,53.9,0.0,0.0,0.0,0,0,100,0.00,0.00,10,3,10,0.00
2014-7-19,75.5,66.6,61.8,0.0,0.0,0.0,0,0,100,0.00,0.00,9,2,9,0.00
2014-7-20,84.0,72.2,64.6,0.0,0.0,0.0,0,0,100,0.00,0.00,8,2,8,0.00
2014-7-21,91.5,78.1,64.5,0.0,0.0,0.0,0,0,100,0.00,0.00,7,2,7,0.00
2014-7-22,94.8,81.8,65.6,0.0,0.0,0.0,0,0,100,0.00,0.00,12,3,12,0.00
2014-7-23,82.5,73.0,61.9,0.0,0.0,0.0,0,0,100,0.00,0.00,17,4,17,0.00
2014-7-24,79.1,67.2,54.6,0.0,0.0,0.0,0,0,100,0.00,0.00,16,4,16,0.00
2014-7-25,84.1,69.6,50.3,0.0,0.0,0.0,0,0,100,0.00,0.00,12,3,12,0.00
2014-7-26,87.9,74.8,60.9,0.0,0.0,0.0,0,0,100,0.00,0.00,18,4,19,0.00
2014-7-27,84.3,71.8,64.0,0.0,0.0,0.0,0,0,100,0.00,0.00,20,4,20,0.00
2014-7-28,73.8,65.9,60.5,0.0,0.0,0.0,0,0,100,0.00,0.00,21,5,23,0.00
2014-7-29,75.2,63.9,52.9,0.0,0.0,0.0,0,0,100,0.00,0.00,13,2,14,0.00
2014-7-30,80.7,67.1,54.3,0.0,0.0,0.0,0,0,100,0.00,0.00,13,4,13,0.00
2014-7-31,83.3,70.6,57.9,0.0,0.0,0.0,0,0,100,0.00,0.00,13,3,15,0.00
2014-8-1,88.9,73.6,58.4,0.0,0.0,0.0,0,0,100,0.00,0.00,12,2,12,0.00
2014-8-2,78.0,67.8,62.0,0.0,0.0,0.0,0,0,100,0.00,0.00,20,2,23,0.32
2014-8-3,83.6,71.2,59.3,0.0,0.0,0.0,0,0,100,0.00,0.00,11,2,12,0.00
2014-8-4,87.2,73.4,58.4,0.0,0.0,0.0,0,0,100,0.00,0.00,7,1,7,0.00
2014-8-5,88.9,72.8,58.3,0.0,0.0,0.0,0,0,100,0.00,0.00,10,2,10,0.08
2014-8-6,85.3,71.9,61.8,0.0,0.0,0.0,0,0,100,0.00,0.00,21,2,22,0.00
2014-8-7,82.2,68.9,54.2,0.0,0.0,0.0,0,0,100,0.00,0.00,9,1,9,0.00
2014-8-8,83.4,70.8,58.9,0.0,0.0,0.0,0,0,100,0.00,0.00,14,4,14,0.00
2014-8-9,86.6,72.6,59.7,0.0,0.0,0.0,0,0,100,0.00,0.00,12,5,12,0.00
2014-8-10,87.0,75.1,61.6,0.0,0.0,0.0,0,0,100,0.00,0.00,12,4,12,0.00
2014-8-11,86.3,73.7,67.4,0.0,0.0,0.0,0,0,100,0.00,0.00,15,4,17,1.08
2014-8-12,81.3,71.1,63.8,0.0,0.0,0.0,0,0,100,0.00,0.00,21,5,23,0.08
2014-8-13,76.9,66.4,58.4,0.0,0.0,0.0,0,0,100,0.00,0.00,18,5,18,0.00
2014-8-14,75.4,65.3,52.5,0.0,0.0,0.0,0,0,100,0.00,0.00,20,5,21,0.00
2014-8-15,75.4,61.8,46.3,0.0,0.0,0.0,0,0,100,0.00,0.00,13,2,13,0.00
2014-8-16,82.1,64.6,46.7,0.0,0.0,0.0,0,0,100,0.00,0.00,17,3,20,0.00
2014-8-17,90.0,74.8,66.0,0.0,0.0,0.0,0,0,100,0.00,0.00,11,2,11,0.00
2014-8-18,88.0,74.8,66.4,0.0,0.0,0.0,0,0,100,0.00,0.00,9,3,11,0.00
2014-8-19,93.2,78.2,63.7,0.0,0.0,0.0,0,0,100,0.00,0.00,16,4,16,0.00
2014-8-20,88.2,77.1,67.4,0.0,0.0,0.0,0,0,100,0.00,0.00,16,4,16,0.06
2014-8-21,77.7,70.8,66.0,0.0,0.0,0.0,0,0,100,0.00,0.00,16,3,16,0.28
2014-8-22,88.2,75.5,65.4,0.0,0.0,0.0,0,0,100,0.00,0.00,11,2,11,1.36
2014-8-23,90.6,76.8,65.6,0.0,0.0,0.0,0,0,100,0.00,0.00,7,2,8,0.00
2014-8-24,88.8,74.7,65.4,0.0,0.0,0.0,0,0,100,0.00,0.00,9,4,9,0.00
2014-8-25,89.2,76.2,65.9,0.0,0.0,0.0,0,0,100,0.00,0.00,9,3,9,0.00
2014-8-26,92.2,77.5,63.4,0.0,0.0,0.0,0,0,100,0.00,0.00,10,2,10,0.00
2014-8-27,92.9,77.4,65.3,0.0,0.0,0.0,0,0,100,0.00,0.00,14,3,15,0.00
2014-8-28,80.7,69.0,58.5,0.0,0.0,0.0,0,0,100,0.00,0.00,10,3,11,0.00
2014-8-29,86.0,70.5,56.6,0.0,0.0,0.0,0,0,100,0.00,0.00,10,4,10,0.00
2014-8-30,92.5,78.4,65.1,0.0,0.0,0.0,0,0,100,0.00,0.00,19,5,21,0.00
2014-8-31,82.2,72.6,68.7,0.0,0.0,0.0,0,0,100,0.00,0.00,16,4,16,1.36
2014-9-1,86.3,75.8,67.3,0.0,0.0,0.0,0,0,100,0.00,0.00,20,5,21,0.00
2014-9-2,81.6,73.4,64.6,0.0,0.0,0.0,0,0,100,0.00,0.00,17,4,17,0.28
2014-9-3,86.1,71.4,60.2,0.0,0.0,0.0,0,0,100,0.00,0.00,7,1,8,0.00
2014-9-4,90.3,74.3,59.1,0.0,0.0,0.0,0,0,100,0.00,0.00,11,2,11,0.00
2014-9-5,93.3,80.1,68.6,0.0,0.0,0.0,0,0,100,0.00,0.00,14,4,14,0.00
2014-9-6,78.3,69.1,56.2,0.0,0.0,0.0,0,0,100,0.00,0.00,17,3,17,0.04
2014-9-7,76.9,63.3,51.5,0.0,0.0,0.0,0,0,100,0.00,0.00,13,2,13,0.00
2014-9-8,80.2,64.8,52.5,0.0,0.0,0.0,0,0,100,0.00,0.00,9,3,9,0.00
2014-9-9,86.1,71.2,61.1,0.0,0.0,0.0,0,0,100,0.00,0.00,12,3,12,0.00
2014-9-10,84.4,74.0,63.2,0.0,0.0,0.0,0,0,100,0.00,0.00,24,7,25,0.02
2014-9-11,76.4,65.9,53.9,0.0,0.0,0.0,0,0,100,0.00,0.00,22,6,23,0.12
2014-9-12,65.6,58.9,53.7,0.0,0.0,0.0,0,0,100,0.00,0.00,10,2,10,0.00
2014-9-13,64.8,56.6,48.8,0.0,0.0,0.0,0,0,100,0.00,0.00,18,4,20,0.00
2014-9-14,70.0,54.9,42.5,0.0,0.0,0.0,0,0,100,0.00,0.00,9,3,10,0.00
2014-9-15,76.5,59.2,43.4,0.0,0.0,0.0,0,0,100,0.00,0.00,12,3,13,0.00
2014-9-16,67.7,57.0,47.3,0.0,0.0,0.0,0,0,100,0.00,0.00,11,3,11,0.00
2014-9-17,73.7,58.7,43.9,0.0,0.0,0.0,0,0,100,0.00,0.00,9,2,10,0.00
2014-9-18,73.1,58.5,46.5,0.0,0.0,0.0,0,0,100,0.00,0.00,13,2,15,0.00
2014-9-19,76.0,60.5,48.2,0.0,0.0,0.0,0,0,100,0.00,0.00,13,4,13,0.00
2014-9-20,83.8,69.8,57.8,0.0,0.0,0.0,0,0,100,0.00,0.00,20,6,22,0.00
2014-9-21,78.2,68.9,55.0,0.0,0.0,0.0,0,0,100,0.00,0.00,28,8,31,0.64
2014-9-22,62.9,53.2,42.7,0.0,0.0,0.0,0,0,100,0.00,0.00,23,4,24,0.00
2014-9-23,72.5,53.9,38.4,0.0,0.0,0.0,0,0,100,0.00,0.00,9,2,9,0.00
2014-9-24,76.4,60.4,48.4,0.0,0.0,0.0,0,0,100,0.00,0.00,12,4,14,0.00
2014-9-25,79.8,62.5,48.8,0.0,0.0,0.0,0,0,100,0.00,0.00,9,3,9,0.00
2014-9-26,80.6,64.2,51.5,0.0,0.0,0.0,0,0,100,0.00,0.00,11,3,11,0.00
2014-9-27,79.8,65.2,54.2,0.0,0.0,0.0,0,0,100,0.00,0.00,12,4,13,0.00
2014-9-28,83.6,66.8,50.8,0.0,0.0,0.0,0,0,100,0.00,0.00,9,2,9,0.00
2014-9-29,83.9,66.9,54.4,0.0,0.0,0.0,0,0,100,0.00,0.00,12,2,12,0.00
2014-9-30,67.4,55.7,47.1,0.0,0.0,0.0,0,0,100,0.00,0.00,13,2,13,0.12
2014-10-1,72.4,56.4,44.2,0.0,0.0,0.0,0,0,100,0.00,0.00,10,2,10,0.00
2014-10-2,86.4,66.1,48.8,0.0,0.0,0.0,0,0,100,0.00,0.00,14,4,15,0.00
2014-10-3,73.8,63.9,52.2,0.0,0.0,0.0,0,0,100,0.00,0.00,28,6,28,0.28
2014-10-4,53.7,44.5,38.4,0.0,0.0,0.0,0,0,100,0.00,0.00,23,6,23,0.12
2014-10-5,58.2,48.9,40.7,0.0,0.0,0.0,0,0,100,0.00,0.00,21,5,22,0.16
2014-10-6,59.8,51.8,42.8,0.0,0.0,0.0,0,0,100,0.00,0.00,25,5,25,0.66
2014-10-7,59.3,52.2,44.0,0.0,0.0,0.0,0,0,100,0.00,0.00,19,5,20,0.22
2014-10-8,66.8,54.4,43.1,0.0,0.0,0.0,0,0,100,0.00,0.00,22,4,22,0.04
2014-10-9,56.0,49.1,41.1,0.0,0.0,0.0,0,0,100,0.00,0.00,11,3,12,0.06
2014-10-10,62.5,53.1,48.2,0.0,0.0,0.0,0,0,100,0.00,0.00,10,1,10,0.10
2014-10-11,62.0,50.9,43.0,0.0,0.0,0.0,0,0,100,0.00,0.00,15,3,15,0.02
2014-10-12,67.5,52.4,40.5,0.0,0.0,0.0,0,0,100,0.00,0.00,12,6,13,0.00
2014-10-13,77.0,64.8,55.0,0.0,0.0,0.0,0,0,100,0.00,0.00,16,5,18,0.02
2014-10-14,76.2,65.4,57.2,0.0,0.0,0.0,0,0,100,0.00,0.00,33,6,36,0.60
2014-10-15,65.1,57.5,52.7,0.0,0.0,0.0,0,0,100,0.00,0.00,13,3,13,0.04
2014-10-16,64.3,56.1,51.0,0.0,0.0,0.0,0,0,100,0.00,0.00,10,2,11,0.06
2014-10-17,71.0,59.4,51.5,0.0,0.0,0.0,0,0,100,0.00,0.00,26,7,26,0.02
2014-10-18,56.0,49.4,44.5,0.0,0.0,0.0,0,0,100,0.00,0.00,19,6,19,0.06
2014-10-19,55.7,44.8,34.2,0.0,0.0,0.0,0,0,100,0.00,0.00,11,3,12,0.00
2014-10-20,64.6,49.8,38.4,0.0,0.0,0.0,0,0,100,0.00,0.00,18,4,19,0.32
2014-10-21,51.6,47.1,43.5,0.0,0.0,0.0,0,0,100,0.00,0.00,19,6,20,0.06
2014-10-22,50.5,46.2,42.7,0.0,0.0,0.0,0,0,100,0.00,0.00,19,7,20,0.00
2014-10-23,59.0,46.6,38.8,0.0,0.0,0.0,0,0,100,0.00,0.00,12,4,12,0.00
2014-10-24,65.5,48.6,36.8,0.0,0.0,0.0,0,0,100,0.00,0.00,11,1,11,0.00
2014-10-25,71.5,55.9,42.8,0.0,0.0,0.0,0,0,100,0.00,0.00,18,5,20,0.00
2014-10-26,64.3,51.8,38.8,0.0,0.0,0.0,0,0,100,0.00,0.00,14,3,15,0.00
2014-10-27,78.9,58.5,37.7,0.0,0.0,0.0,0,0,100,0.00,0.00,22,5,23,0.00
2014-10-28,72.7,63.2,48.8,0.0,0.0,0.0,0,0,100,0.00,0.00,26,7,26,0.00
2014-10-29,57.5,48.3,43.6,0.0,0.0,0.0,0,0,100,0.00,0.00,22,4,24,0.00
2014-10-30,50.7,44.0,33.8,0.0,0.0,0.0,0,0,100,0.00,0.00,11,2,11,0.00
2014-10-31,46.3,41.8,36.8,0.0,0.0,0.0,0,0,100,0.00,0.00,23,4,24,0.00
2014-11-1,42.2,37.8,34.1,0.0,0.0,0.0,0,0,100,0.00,0.00,25,12,27,0.02
2014-11-2,47.0,35.3,27.2,0.0,0.0,0.0,0,0,100,0.00,0.00,17,4,17,0.00
2014-11-3,62.3,45.7,28.0,0.0,0.0,0.0,0,0,100,0.00,0.00,25,6,25,0.00
2014-11-4,67.2,55.5,47.1,0.0,0.0,0.0,0,0,100,0.00,0.00,26,9,28,0.06
2014-11-5,56.9,49.3,41.7,0.0,0.0,0.0,0,0,100,0.00,0.00,14,3,14,0.12
2014-11-6,50.6,46.6,41.3,0.0,0.0,0.0,0,0,100,0.00,0.00,24,6,26,0.32
2014-11-7,44.9,37.1,27.7,0.0,0.0,0.0,0,0,100,0.00,0.00,28,6,29,0.00
2014-11-8,53.4,40.7,29.5,0.0,0.0,0.0,0,0,100,0.00,0.00,20,6,23,0.00
2014-11-9,52.6,44.1,32.7,0.0,0.0,0.0,0,0,100,0.00,0.00,17,4,18,0.00
2014-11-10,64.1,50.9,39.2,0.0,0.0,0.0,0,0,100,0.00,0.00,18,5,19,0.00
2014-11-11,68.9,56.2,39.7,0.0,0.0,0.0,0,0,100,0.00,0.00,29,8,29,0.04
2014-11-12,40.2,36.3,32.0,0.0,0.0,0.0,0,0,100,0.00,0.00,20,5,20,0.00
2014-11-13,32.0,29.1,25.2,0.0,0.0,0.0,0,0,100,0.00,0.00,16,4,17,0.00
2014-11-14,33.5,26.9,20.0,0.0,0.0,0.0,0,0,100,0.00,0.00,14,3,15,0.00
2014-11-15,38.4,27.0,14.7,0.0,0.0,0.0,0,0,100,0.00,0.00,14,2,14,0.00
2014-11-16,38.6,33.3,28.9,0.0,0.0,0.0,0,0,100,0.00,0.00,12,2,12,0.00
2014-11-17,35.2,26.8,15.8,0.0,0.0,0.0,0,0,100,0.00,0.00,19,2,19,0.02
2014-11-18,20.5,15.2,10.7,0.0,0.0,0.0,0,0,100,0.00,0.00,22,6,23,0.00
2014-11-19,36.0,25.6,11.5,0.0,0.0,0.0,0,0,100,0.00,0.00,26,7,26,0.32
2014-11-20,29.6,24.8,21.4,0.0,0.0,0.0,0,0,100,0.00,0.00,21,6,25,0.00
2014-11-21,31.4,20.9,10.9,0.0,0.0,0.0,0,0,100,0.00,0.00,11,2,12,0.00
2014-11-22,51.3,37.8,17.5,0.0,0.0,0.0,0,0,100,0.00,0.00,16,5,16,0.04
2014-11-23,62.4,52.2,43.8,0.0,0.0,0.0,0,0,100,0.00,0.00,26,6,26,0.28
2014-11-24,63.4,52.1,36.6,0.0,0.0,0.0,0,0,100,0.00,0.00,42,12,53,4.44
2014-11-25,39.2,34.5,26.0,0.0,0.0,0.0,0,0,100,0.00,0.00,18,5,20,0.06
2014-11-26,39.4,32.2,26.1,0.0,0.0,0.0,0,0,100,0.00,0.00,11,3,12,0.00
2014-11-27,32.7,30.2,27.8,0.0,0.0,0.0,0,0,100,0.00,0.00,17,5,18,0.00
2014-11-28,33.8,27.3,18.0,0.0,0.0,0.0,0,0,100,0.00,0.00,15,4,15,0.00
2014-11-29,52.6,40.4,27.0,0.0,0.0,0.0,0,0,100,0.00,0.00,22,6,24,0.00
2014-11-30,61.5,57.6,52.6,0.0,0.0,0.0,0,0,100,0.00,0.00,27,10,27,0.00
2014-12-1,60.0,37.8,26.3,0.0,0.0,0.0,0,0,100,0.00,0.00,22,6,23,0.20
2014-12-2,35.5,30.4,24.9,0.0,0.0,0.0,0,0,100,0.00,0.00,16,4,16,0.00
2014-12-3,38.9,33.8,26.4,0.0,0.0,0.0,0,0,100,0.00,0.00,19,5,21,0.00
2014-12-4,37.0,30.6,23.5,0.0,0.0,0.0,0,0,100,0.00,0.00,10,2,10,0.00
2014-12-5,42.9,38.5,34.1,0.0,0.0,0.0,0,0,100,0.00,0.00,11,3,11,0.38
2014-12-6,43.8,39.1,34.6,0.0,0.0,0.0,0,0,100,0.00,0.00,26,8,28,0.66
2014-12-7,42.8,33.5,24.8,0.0,0.0,0.0,0,0,100,0.00,0.00,14,4,15,0.00
2014-12-8,45.8,37.9,31.5,0.0,0.0,0.0,0,0,100,0.00,0.00,16,6,16,0.00
2014-12-9,41.8,37.8,34.9,0.0,0.0,0.0,0,0,100,0.00,0.00,17,5,19,0.00
2014-12-10,35.3,30.7,28.0,0.0,0.0,0.0,0,0,100,0.00,0.00,22,9,23,0.00
2014-12-11,38.3,28.2,20.6,0.0,0.0,0.0,0,0,100,0.00,0.00,17,5,21,0.00
2014-12-12,40.9,30.0,22.0,0.0,0.0,0.0,0,0,100,0.00,0.00,13,4,13,0.00
2014-12-13,42.0,36.3,29.2,0.0,0.0,0.0,0,0,100,0.00,0.00,13,4,14,0.00
2014-12-14,46.4,43.3,41.5,0.0,0.0,0.0,0,0,100,0.00,0.00,12,4,12,0.00
2014-12-15,53.7,44.9,38.9,0.0,0.0,0.0,0,0,100,0.00,0.00,11,3,11,0.04
2014-12-16,49.3,44.0,37.5,0.0,0.0,0.0,0,0,100,0.00,0.00,21,6,23,0.36
2014-12-17,37.5,30.8,25.8,0.0,0.0,0.0,0,0,100,0.00,0.00,18,6,20,0.04
2014-12-18,28.5,27.0,25.9,0.0,0.0,0.0,0,0,100,0.00,0.00,10,2,11,0.00
2014-12-19,30.2,28.4,27.3,0.0,0.0,0.0,0,0,100,0.00,0.00,7,1,7,0.00
2014-12-20,31.7,29.4,28.1,0.0,0.0,0.0,0,0,100,0.00,0.00,5,1,5,0.00
2014-12-21,38.2,30.4,25.7,0.0,0.0,0.0,0,0,100,0.00,0.00,9,2,9,0.00
2014-12-22,46.6,36.7,25.2,0.0,0.0,0.0,0,0,100,0.00,0.00,17,6,17,0.00
2014-12-23,54.0,48.5,42.7,0.0,0.0,0.0,0,0,100,0.00,0.00,17,4,17,0.16
2014-12-24,57.3,51.1,38.3,0.0,0.0,0.0,0,0,100,0.00,0.00,32,6,35,1.22
2014-12-25,40.0,37.3,32.0,0.0,0.0,0.0,0,0,100,0.00,0.00,20,7,23,0.04
2014-12-26,48.5,37.5,27.6,0.0,0.0,0.0,0,0,100,0.00,0.00,14,4,14,0.00
2014-12-27,55.2,46.1,35.9,0.0,0.0,0.0,0,0,100,0.00,0.00,22,5,26,0.26
2014-12-28,46.4,36.7,28.4,0.0,0.0,0.0,0,0,100,0.00,0.00,20,4,20,0.16
2014-12-29,35.5,27.4,20.8,0.0,0.0,0.0,0,0,100,0.00,0.00,11,3,12,0.00
2014-12-30,30.8,24.6,20.4,0.0,0.0,0.0,0,0,100,0.00,0.00,16,4,16,0.00
2014-12-31,26.1,19.7,12.7,0.0,0.0,0.0,0,0,100,0.00,0.00,16,5,18,0.00
2015-1-1,36.3,26.2,16.7,0.0,0.0,0.0,0,0,100,0.00,0.00,27,8,29,0.02
2015-1-2,39.2,30.2,23.7,0.0,0.0,0.0,0,0,100,0.00,0.00,11,2,11,0.00